createdAt,value
2024-02-29T00:01:08.854Z,6.57
2024-02-29T00:03:35.910Z,7.05
2024-02-29T00:06:03.054Z,6.60
2024-02-29T00:08:30.041Z,7.57
2024-02-29T00:10:57.089Z,6.65
2024-02-29T00:13:24.488Z,6.78
2024-02-29T00:15:51.748Z,8.70
2024-02-29T00:18:18.794Z,7.85
2024-02-29T00:20:45.763Z,7.35
2024-02-29T00:23:12.812Z,7.65
2024-02-29T00:25:40.999Z,5.88
2024-02-29T00:28:07.975Z,8.45
2024-02-29T00:30:35.236Z,8.10
2024-02-29T00:33:04.435Z,8.10
2024-02-29T00:35:32.848Z,7.13
2024-02-29T00:37:59.886Z,7.63
2024-02-29T00:40:27.385Z,6.40
2024-02-29T00:42:54.349Z,8.30
2024-02-29T00:45:21.479Z,8.38
2024-02-29T00:47:48.479Z,7.93
2024-02-29T00:50:16.395Z,6.03
2024-02-29T00:52:43.488Z,8.93
2024-02-29T00:55:14.316Z,6.22
2024-02-29T00:57:45.534Z,6.75
2024-02-29T01:00:13.202Z,7.00
2024-02-29T01:02:40.278Z,7.47
2024-02-29T01:05:10.543Z,5.97
2024-02-29T01:07:37.833Z,7.15
2024-02-29T01:10:06.570Z,9.02
2024-02-29T01:12:33.756Z,6.85
2024-02-29T01:15:00.683Z,7.30
2024-02-29T01:17:27.812Z,10.63
2024-02-29T01:19:54.773Z,7.53
2024-02-29T01:22:21.985Z,7.60
2024-02-29T01:24:49.483Z,9.07
2024-02-29T01:27:16.436Z,6.30
2024-02-29T01:29:43.655Z,8.40
2024-02-29T01:32:18.596Z,8.75
2024-02-29T01:34:49.945Z,7.15
2024-02-29T01:37:17.104Z,7.88
2024-02-29T01:39:44.224Z,8.05
2024-02-29T01:42:12.393Z,6.78
2024-02-29T01:45:00.778Z,7.85
2024-02-29T01:47:27.955Z,6.70
2024-02-29T01:49:58.273Z,5.70
2024-02-29T01:52:26.583Z,6.38
2024-02-29T01:54:53.564Z,6.25
2024-02-29T01:57:20.645Z,7.60
2024-02-29T01:59:47.762Z,8.10
2024-02-29T02:02:14.848Z,7.20
2024-02-29T02:04:42.085Z,7.97
2024-02-29T02:07:09.150Z,7.25
2024-02-29T02:09:36.631Z,7.78
2024-02-29T02:12:03.768Z,5.95
2024-02-29T02:14:31.475Z,8.05
2024-02-29T02:16:58.622Z,8.70
2024-02-29T02:19:25.655Z,7.75
2024-02-29T02:21:53.168Z,9.55
2024-02-29T02:24:22.079Z,6.57
2024-02-29T02:26:49.119Z,7.07
2024-02-29T02:29:16.050Z,9.68
2024-02-29T02:31:43.065Z,6.55
2024-02-29T02:34:10.087Z,11.18
2024-02-29T02:36:37.150Z,7.15
2024-02-29T02:39:04.103Z,7.32
2024-02-29T02:41:31.143Z,8.05
2024-02-29T02:43:58.015Z,7.90
2024-02-29T02:46:25.160Z,5.03
2024-02-29T02:48:52.119Z,8.50
2024-02-29T02:51:19.285Z,7.20
2024-02-29T02:53:46.177Z,7.78
2024-02-29T02:56:13.218Z,6.25
2024-02-29T02:58:40.112Z,11.00
2024-02-29T03:01:07.139Z,8.77
2024-02-29T03:03:34.372Z,7.20
2024-02-29T03:06:01.350Z,9.35
2024-02-29T03:08:28.311Z,9.55
2024-02-29T03:10:55.394Z,7.55
2024-02-29T03:13:22.500Z,11.10
2024-02-29T03:15:49.850Z,9.70
2024-02-29T03:18:18.296Z,11.23
2024-02-29T03:20:45.384Z,10.23
2024-02-29T03:23:12.283Z,9.27
2024-02-29T03:25:39.281Z,8.98
2024-02-29T03:28:06.561Z,9.38
2024-02-29T03:30:34.108Z,10.40
2024-02-29T03:33:01.273Z,10.57
2024-02-29T03:35:28.350Z,10.07
2024-02-29T03:37:55.231Z,7.40
2024-02-29T03:40:22.260Z,10.18
2024-02-29T03:42:49.608Z,7.97
2024-02-29T03:45:16.677Z,11.57
2024-02-29T03:47:43.704Z,9.10
2024-02-29T03:50:14.578Z,10.00
2024-02-29T03:52:41.854Z,11.88
2024-02-29T03:55:09.345Z,10.73
2024-02-29T03:57:36.410Z,13.43
2024-02-29T04:00:03.998Z,8.52
2024-02-29T04:02:31.197Z,10.05
2024-02-29T04:04:58.156Z,11.27
2024-02-29T04:07:25.192Z,10.27
2024-02-29T04:09:55.937Z,10.15
2024-02-29T04:12:25.796Z,11.57
2024-02-29T04:14:53.024Z,8.48
2024-02-29T04:17:19.992Z,8.95
2024-02-29T04:19:47.310Z,10.00
2024-02-29T04:22:17.326Z,11.63
2024-02-29T04:24:44.481Z,9.35
2024-02-29T04:27:11.456Z,10.65
2024-02-29T04:29:38.466Z,7.78
2024-02-29T04:32:05.636Z,9.43
2024-02-29T04:34:32.557Z,10.10
2024-02-29T04:36:59.507Z,9.90
2024-02-29T04:39:26.942Z,10.27
2024-02-29T04:41:53.829Z,9.85
2024-02-29T04:44:20.805Z,8.02
2024-02-29T04:46:47.840Z,11.75
2024-02-29T04:49:14.893Z,10.68
2024-02-29T04:51:41.901Z,12.45
2024-02-29T04:54:08.911Z,11.27
2024-02-29T04:56:36.775Z,10.68
2024-02-29T04:59:05.797Z,11.18
2024-02-29T05:01:33.435Z,7.90
2024-02-29T05:04:00.542Z,13.18
2024-02-29T05:06:29.080Z,11.18
2024-02-29T05:08:56.196Z,9.88
2024-02-29T05:11:23.186Z,11.40
2024-02-29T05:13:50.124Z,10.10
2024-02-29T05:16:21.461Z,9.60
2024-02-29T05:18:48.679Z,9.77
2024-02-29T05:21:15.727Z,8.45
2024-02-29T05:23:42.864Z,10.27
2024-02-29T05:26:11.487Z,7.30
2024-02-29T05:28:38.468Z,10.10
2024-02-29T05:31:05.567Z,10.77
2024-02-29T05:33:32.713Z,9.32
2024-02-29T05:35:59.809Z,9.70
2024-02-29T05:38:27.223Z,12.68
2024-02-29T05:40:54.292Z,7.20
2024-02-29T05:43:21.359Z,11.85
2024-02-29T05:45:48.345Z,9.98
2024-02-29T05:48:15.528Z,13.68
2024-02-29T05:50:42.685Z,12.00
2024-02-29T05:53:11.640Z,13.70
2024-02-29T05:55:38.700Z,11.52
2024-02-29T05:58:05.835Z,15.88
2024-02-29T06:00:32.967Z,14.57
2024-02-29T06:03:00.200Z,11.88
2024-02-29T06:05:29.129Z,12.35
2024-02-29T06:07:56.134Z,10.60
2024-02-29T06:10:23.742Z,12.68
2024-02-29T06:12:50.781Z,15.38
2024-02-29T06:15:19.213Z,12.02
2024-02-29T06:17:46.343Z,11.82
2024-02-29T06:20:13.766Z,12.82
2024-02-29T06:22:41.394Z,11.20
2024-02-29T06:25:12.079Z,13.27
2024-02-29T06:27:40.368Z,13.35
2024-02-29T06:30:09.328Z,12.23
2024-02-29T06:32:37.073Z,14.45
2024-02-29T06:35:04.405Z,13.50
2024-02-29T06:37:31.509Z,14.25
2024-02-29T06:39:59.825Z,11.75
2024-02-29T06:42:27.121Z,10.85
2024-02-29T06:44:54.011Z,9.65
2024-02-29T06:47:23.554Z,10.20
2024-02-29T06:49:50.996Z,9.48
2024-02-29T06:52:18.193Z,8.75
2024-02-29T06:54:46.389Z,8.32
2024-02-29T06:57:13.622Z,8.40
2024-02-29T06:59:40.753Z,8.32
2024-02-29T07:02:07.919Z,8.02
2024-02-29T07:04:35.713Z,8.43
2024-02-29T07:07:04.732Z,9.65
2024-02-29T07:09:33.743Z,7.82
2024-02-29T07:12:01.244Z,6.05
2024-02-29T07:14:28.861Z,6.63
2024-02-29T07:16:56.325Z,6.43
2024-02-29T07:19:23.416Z,5.80
2024-02-29T07:21:50.974Z,8.00
2024-02-29T07:24:18.127Z,7.53
2024-02-29T07:26:45.187Z,9.38
2024-02-29T07:29:12.965Z,7.75
2024-02-29T07:31:43.275Z,8.38
2024-02-29T07:34:11.952Z,7.63
2024-02-29T07:36:39.158Z,7.65
2024-02-29T07:39:08.028Z,7.78
2024-02-29T07:41:36.299Z,7.90
2024-02-29T07:44:03.349Z,6.93
2024-02-29T07:46:30.371Z,7.75
2024-02-29T07:48:57.565Z,7.53
2024-02-29T07:51:26.074Z,8.95
2024-02-29T07:53:53.096Z,6.93
2024-02-29T07:56:20.408Z,7.72
2024-02-29T07:58:47.851Z,7.93
2024-02-29T08:01:14.976Z,7.40
2024-02-29T08:03:42.319Z,7.75
2024-02-29T08:06:09.333Z,7.53
2024-02-29T08:08:36.414Z,6.50
2024-02-29T08:11:06.016Z,7.20
2024-02-29T08:13:33.068Z,8.23
2024-02-29T08:15:59.938Z,6.45
2024-02-29T08:18:26.924Z,5.65
2024-02-29T08:20:53.943Z,4.28
2024-02-29T08:23:20.950Z,5.68
2024-02-29T08:25:47.873Z,4.88
2024-02-29T08:28:14.954Z,4.93
2024-02-29T08:30:41.979Z,4.43
2024-02-29T08:33:08.998Z,5.65
2024-02-29T08:35:36.088Z,4.85
2024-02-29T08:38:03.123Z,7.72
2024-02-29T08:40:30.258Z,6.50
2024-02-29T08:42:57.402Z,9.07
2024-02-29T08:45:24.414Z,8.77
2024-02-29T08:47:51.522Z,8.25
2024-02-29T08:50:18.531Z,5.93
2024-02-29T08:52:45.518Z,7.00
2024-02-29T08:55:12.589Z,5.35
2024-02-29T08:57:39.730Z,6.13
2024-02-29T09:00:07.354Z,6.25
2024-02-29T09:02:34.289Z,6.60
2024-02-29T09:05:01.231Z,4.22
2024-02-29T09:07:28.137Z,5.95
2024-02-29T09:09:55.120Z,4.75
2024-02-29T09:12:24.165Z,4.47
2024-02-29T09:14:51.092Z,5.82
2024-02-29T09:17:18.055Z,5.10
2024-02-29T09:19:45.664Z,6.15
2024-02-29T09:22:12.726Z,5.85
2024-02-29T09:24:39.736Z,6.05
2024-02-29T09:27:06.690Z,6.82
2024-02-29T09:29:34.778Z,7.13
2024-02-29T09:32:03.216Z,7.22
2024-02-29T09:34:35.465Z,8.27
2024-02-29T09:37:05.992Z,6.47
2024-02-29T09:39:33.465Z,9.27
2024-02-29T09:42:12.385Z,7.20
2024-02-29T09:44:41.431Z,7.13
2024-02-29T09:47:08.343Z,7.25
2024-02-29T09:49:35.319Z,8.05
2024-02-29T09:52:21.216Z,5.75
2024-02-29T09:54:48.139Z,6.10
2024-02-29T09:57:15.041Z,5.75
2024-02-29T09:59:45.168Z,6.60
2024-02-29T10:02:18.521Z,7.13
2024-02-29T10:04:47.260Z,5.40
2024-02-29T10:07:15.772Z,4.13
2024-02-29T10:09:43.559Z,7.10
2024-02-29T10:12:17.920Z,5.90
2024-02-29T10:14:45.480Z,4.60
2024-02-29T10:17:12.413Z,5.28
2024-02-29T10:19:39.740Z,7.35
2024-02-29T10:22:08.124Z,6.25
2024-02-29T10:24:35.678Z,5.10
2024-02-29T10:27:03.567Z,6.38
2024-02-29T10:29:30.820Z,6.03
2024-02-29T10:31:59.173Z,5.53
2024-02-29T10:34:26.223Z,5.82
2024-02-29T10:36:53.202Z,3.72
2024-02-29T10:39:20.179Z,5.72
2024-02-29T10:41:50.856Z,4.03
2024-02-29T10:44:21.824Z,5.60
2024-02-29T10:46:51.909Z,5.55
2024-02-29T10:49:24.671Z,5.05
2024-02-29T10:52:08.968Z,3.78
2024-02-29T10:54:41.551Z,6.50
2024-02-29T10:57:15.659Z,3.92
2024-02-29T10:59:52.700Z,4.32
2024-02-29T11:02:19.806Z,3.45
2024-02-29T11:04:46.767Z,4.93
2024-02-29T11:07:14.262Z,4.90
2024-02-29T11:09:41.261Z,5.38
2024-02-29T11:12:12.305Z,9.95
2024-02-29T11:14:39.385Z,7.35
2024-02-29T11:17:06.562Z,6.82
2024-02-29T11:19:42.638Z,7.70
2024-02-29T11:22:15.683Z,7.60
2024-02-29T11:24:47.327Z,5.38
2024-02-29T11:27:14.500Z,4.88
2024-02-29T11:29:46.391Z,4.05
2024-02-29T11:32:14.434Z,4.20
2024-02-29T11:34:41.498Z,4.70
2024-02-29T11:37:09.169Z,2.67
2024-02-29T11:39:36.172Z,4.72
2024-02-29T11:42:04.650Z,3.88
2024-02-29T11:44:35.274Z,2.85
2024-02-29T11:47:02.158Z,3.42
2024-02-29T11:49:29.187Z,3.13
2024-02-29T11:51:56.538Z,4.38
2024-02-29T11:54:26.624Z,3.22
2024-02-29T11:56:55.237Z,2.95
2024-02-29T11:59:22.400Z,4.90
2024-02-29T12:01:49.448Z,4.60
2024-02-29T12:04:16.803Z,5.53
2024-02-29T12:06:48.235Z,4.55
2024-02-29T12:09:16.036Z,4.17
2024-02-29T12:11:45.068Z,5.78
2024-02-29T12:14:12.191Z,6.25
2024-02-29T12:16:39.627Z,5.28
2024-02-29T12:19:10.092Z,4.18
2024-02-29T12:21:37.331Z,2.58
2024-02-29T12:24:06.282Z,4.13
2024-02-29T12:26:33.292Z,3.65
2024-02-29T12:29:00.751Z,3.40
2024-02-29T12:31:27.861Z,5.00
2024-02-29T12:33:55.315Z,4.38
2024-02-29T12:36:22.694Z,4.60
2024-02-29T12:38:49.839Z,3.60
2024-02-29T12:41:16.764Z,3.88
2024-02-29T12:43:50.347Z,4.90
2024-02-29T12:46:17.684Z,5.45
2024-02-29T12:48:44.925Z,4.53
2024-02-29T12:51:12.142Z,5.28
2024-02-29T12:53:39.251Z,5.47
2024-02-29T12:56:06.503Z,4.78
2024-02-29T12:58:33.688Z,4.78
2024-02-29T13:01:01.306Z,6.32
2024-02-29T13:03:28.676Z,4.82
2024-02-29T13:05:55.701Z,5.82
2024-02-29T13:08:25.681Z,6.50
2024-02-29T13:10:52.698Z,6.32
2024-02-29T13:13:19.840Z,5.03
2024-02-29T13:15:47.143Z,5.68
2024-02-29T13:18:14.271Z,4.57
2024-02-29T13:20:41.666Z,3.45
2024-02-29T13:23:11.529Z,3.38
2024-02-29T13:25:38.705Z,4.57
2024-02-29T13:28:05.885Z,3.75
2024-02-29T13:30:32.903Z,3.78
2024-02-29T13:32:59.925Z,4.80
2024-02-29T13:35:27.532Z,4.78
2024-02-29T13:37:54.530Z,4.95
2024-02-29T13:40:22.109Z,3.90
2024-02-29T13:42:49.704Z,6.03
2024-02-29T13:45:16.989Z,5.75
2024-02-29T13:47:49.667Z,4.40
2024-02-29T13:50:17.002Z,6.80
2024-02-29T13:52:44.375Z,6.45
2024-02-29T13:55:11.993Z,5.05
2024-02-29T13:57:40.146Z,6.30
2024-02-29T14:00:10.306Z,6.18
2024-02-29T14:02:41.091Z,4.55
2024-02-29T14:05:08.454Z,5.13
2024-02-29T14:07:35.690Z,5.70
2024-02-29T14:10:03.431Z,6.03
2024-02-29T14:12:32.828Z,7.10
2024-02-29T14:14:59.849Z,6.35
2024-02-29T14:17:26.860Z,5.70
2024-02-29T14:19:53.992Z,7.03
2024-02-29T14:22:21.019Z,4.45
2024-02-29T14:24:50.443Z,5.20
2024-02-29T14:27:17.924Z,5.63
2024-02-29T14:29:45.893Z,3.97
2024-02-29T14:32:13.324Z,4.35
2024-02-29T14:34:40.474Z,5.22
2024-02-29T14:37:08.567Z,6.90
2024-02-29T14:39:35.755Z,4.50
2024-02-29T14:42:02.675Z,5.38
2024-02-29T14:44:29.715Z,4.90
2024-02-29T14:46:57.487Z,4.80
2024-02-29T14:49:24.630Z,4.55
2024-02-29T14:51:56.180Z,3.75
2024-02-29T14:54:23.125Z,4.17
2024-02-29T14:56:51.017Z,4.53
2024-02-29T14:59:18.197Z,5.70
2024-02-29T15:01:45.250Z,4.07
2024-02-29T15:04:13.529Z,3.72
2024-02-29T15:06:41.236Z,4.55
2024-02-29T15:09:09.228Z,6.35
2024-02-29T15:11:36.289Z,4.30
2024-02-29T15:14:03.334Z,4.22
2024-02-29T15:16:30.496Z,4.50
2024-02-29T15:18:58.017Z,3.50
2024-02-29T15:21:24.998Z,4.88
2024-02-29T15:23:52.051Z,5.38
2024-02-29T15:26:19.046Z,5.75
2024-02-29T15:28:49.544Z,5.00
2024-02-29T15:31:17.110Z,5.43
2024-02-29T15:33:44.686Z,7.68
2024-02-29T15:36:12.097Z,6.80
2024-02-29T15:38:39.031Z,5.50
2024-02-29T15:41:06.011Z,7.35
2024-02-29T15:43:33.022Z,7.03
2024-02-29T15:46:00.015Z,7.30
2024-02-29T15:48:26.951Z,9.55
2024-02-29T15:50:54.083Z,9.45
2024-02-29T15:53:21.018Z,9.95
2024-02-29T15:55:49.271Z,10.05
2024-02-29T15:58:16.943Z,10.60
2024-02-29T16:00:44.089Z,12.02
2024-02-29T16:03:11.109Z,8.60
2024-02-29T16:05:38.118Z,12.90
2024-02-29T16:08:05.257Z,10.05
2024-02-29T16:10:32.729Z,11.07
2024-02-29T16:12:59.989Z,12.43
2024-02-29T16:15:27.057Z,10.55
2024-02-29T16:17:54.862Z,9.40
2024-02-29T16:20:23.052Z,7.63
2024-02-29T16:22:50.263Z,9.38
2024-02-29T16:25:19.318Z,6.47
2024-02-29T16:27:46.706Z,8.27
2024-02-29T16:30:13.909Z,8.60
2024-02-29T16:32:43.667Z,6.57
